TimePDT,TemperatureF,Dew PointF,Humidity,Sea Level PressureIn,VisibilityMPH,Wind Direction,Wind SpeedMPH,Gust SpeedMPH,PrecipitationIn,Events,Conditions,WindDirDegrees,DateUTC
12:53 AM,63.0,55.9,78,29.95,10.0,Calm,Calm,-,N/A,,Mostly Cloudy,0,2013-10-13 07:53:00
1:17 AM,62.6,55.4,77,29.96,10.0,ESE,4.6,-,N/A,,Scattered Clouds,120,2013-10-13 08:17:00
1:25 AM,62.6,55.4,77,29.95,10.0,East,4.6,-,N/A,,Mostly Cloudy,100,2013-10-13 08:25:00
1:53 AM,62.1,57.0,84,29.95,10.0,East,5.8,-,N/A,,Mostly Cloudy,90,2013-10-13 08:53:00
2:00 AM,62.6,57.2,82,29.96,10.0,East,5.8,-,N/A,,Scattered Clouds,90,2013-10-13 09:00:00
2:26 AM,62.6,57.2,82,29.95,10.0,East,4.6,-,N/A,,Mostly Cloudy,90,2013-10-13 09:26:00
2:53 AM,63.0,57.0,81,29.95,10.0,Calm,Calm,-,N/A,,Overcast,0,2013-10-13 09:53:00
3:53 AM,62.1,55.9,80,29.94,9.0,SSE,4.6,-,N/A,,Overcast,150,2013-10-13 10:53:00
4:53 AM,61.0,54.0,78,29.94,10.0,Calm,Calm,-,N/A,,Scattered Clouds,0,2013-10-13 11:53:00
5:05 AM,60.8,53.6,77,29.95,10.0,ENE,3.5,-,N/A,,Mostly Cloudy,70,2013-10-13 12:05:00
5:53 AM,62.1,52.0,70,29.95,10.0,ENE,3.5,-,N/A,,Overcast,60,2013-10-13 12:53:00
6:53 AM,62.1,52.0,70,29.96,10.0,ESE,4.6,-,N/A,,Mostly Cloudy,120,2013-10-13 13:53:00
7:53 AM,62.1,52.0,70,29.97,10.0,ESE,3.5,-,N/A,,Scattered Clouds,110,2013-10-13 14:53:00
8:53 AM,64.9,53.1,65,29.98,10.0,ESE,8.1,-,N/A,,Scattered Clouds,120,2013-10-13 15:53:00
9:35 AM,64.4,53.6,68,29.99,10.0,Calm,Calm,-,N/A,,Mostly Cloudy,0,2013-10-13 16:35:00
9:53 AM,66.0,53.1,63,29.99,10.0,Calm,Calm,-,N/A,,Mostly Cloudy,0,2013-10-13 16:53:00
10:43 AM,66.2,53.6,64,29.99,10.0,Calm,Calm,-,N/A,,Overcast,0,2013-10-13 17:43:00
10:53 AM,66.0,53.1,63,29.99,10.0,Calm,Calm,-,N/A,,Mostly Cloudy,0,2013-10-13 17:53:00
11:10 AM,66.2,53.6,64,30.00,10.0,West,5.8,-,N/A,,Mostly Cloudy,260,2013-10-13 18:10:00
11:53 AM,66.9,55.0,66,29.99,10.0,WSW,8.1,-,N/A,,Mostly Cloudy,250,2013-10-13 18:53:00
12:53 PM,69.1,53.1,57,29.98,10.0,WSW,9.2,-,N/A,,Scattered Clouds,250,2013-10-13 19:53:00
1:53 PM,69.1,53.1,57,29.97,10.0,WSW,11.5,-,N/A,,Partly Cloudy,240,2013-10-13 20:53:00
2:53 PM,68.0,54.0,61,29.96,10.0,SW,10.4,-,N/A,,Partly Cloudy,230,2013-10-13 21:53:00
3:53 PM,66.9,53.1,61,29.96,10.0,WSW,9.2,-,N/A,,Partly Cloudy,240,2013-10-13 22:53:00
4:53 PM,66.9,54.0,63,29.96,10.0,West,10.4,-,N/A,,Partly Cloudy,270,2013-10-13 23:53:00
5:53 PM,64.9,54.0,68,29.97,10.0,West,6.9,-,N/A,,Partly Cloudy,270,2013-10-14 00:53:00
6:53 PM,64.0,55.0,73,29.98,10.0,West,9.2,-,N/A,,Partly Cloudy,270,2013-10-14 01:53:00
7:53 PM,64.0,54.0,70,29.99,10.0,West,8.1,-,N/A,,Partly Cloudy,270,2013-10-14 02:53:00
8:38 PM,64.4,57.2,77,30.00,10.0,West,9.2,-,N/A,,Mostly Cloudy,280,2013-10-14 03:38:00
8:53 PM,63.0,57.0,81,30.00,10.0,West,6.9,-,N/A,,Mostly Cloudy,270,2013-10-14 03:53:00
9:01 PM,64.4,57.2,77,30.01,10.0,NNW,3.5,-,N/A,,Scattered Clouds,330,2013-10-14 04:01:00
9:53 PM,63.0,55.9,78,30.01,10.0,Calm,Calm,-,N/A,,Partly Cloudy,0,2013-10-14 04:53:00
10:53 PM,63.0,55.9,78,30.02,10.0,Calm,Calm,-,N/A,,Partly Cloudy,0,2013-10-14 05:53:00
11:53 PM,61.0,55.0,81,30.02,10.0,Calm,Calm,-,N/A,,Partly Cloudy,0,2013-10-14 06:53:00